Time;durP1;ratioP1;P1;durP2;ratioP2;P2;SDS_P1;SDS_P2;PMS_P1;PMS_P2;Temp;Humidity;BMP_temperature;BMP_pressure;BME280_temperature;BME280_humidity;BME280_pressure;Samples;Min_cycle;Max_cycle;Signal;HPM_P1;HPM_P2
2023/08/28 00:01:13;;;;;;;1.27;0.98;;;;;;;;;;5008149;28;20041;-74
2023/08/28 00:03:41;;;;;;;0.60;0.60;;;;;;;;;;5008370;28;20494;-74
2023/08/28 00:06:07;;;;;;;0.88;0.80;;;;;;;;;;5008718;28;20107;-75
2023/08/28 00:08:33;;;;;;;0.75;0.70;;;;;;;;;;5008846;28;20478;-74
2023/08/28 00:11:00;;;;;;;0.73;0.70;;;;;;;;;;5008018;28;20046;-74
2023/08/28 00:13:26;;;;;;;1.55;1.00;;;;;;;;;;5007753;28;20634;-74
2023/08/28 00:15:52;;;;;;;0.70;0.70;;;;;;;;;;5007332;28;20453;-74
2023/08/28 00:18:18;;;;;;;0.70;0.70;;;;;;;;;;5008499;28;20033;-74
2023/08/28 00:20:45;;;;;;;0.50;0.50;;;;;;;;;;5008786;28;20033;-74
2023/08/28 00:23:11;;;;;;;0.45;0.45;;;;;;;;;;5007187;28;20113;-74
2023/08/28 00:25:37;;;;;;;0.50;0.50;;;;;;;;;;5008172;28;20037;-74
2023/08/28 00:28:03;;;;;;;1.00;0.57;;;;;;;;;;5008621;28;20050;-75
2023/08/28 00:30:29;;;;;;;0.65;0.60;;;;;;;;;;5007217;28;20030;-74
2023/08/28 00:32:55;;;;;;;0.47;0.47;;;;;;;;;;5007038;28;20140;-74
2023/08/28 00:35:21;;;;;;;0.60;0.60;;;;;;;;;;5007581;28;20018;-74
2023/08/28 00:37:47;;;;;;;0.80;0.60;;;;;;;;;;5007719;28;20022;-74
2023/08/28 00:40:13;;;;;;;0.57;0.57;;;;;;;;;;5008851;28;20029;-74
2023/08/28 00:42:39;;;;;;;1.23;0.60;;;;;;;;;;5008685;28;20164;-74
2023/08/28 00:45:06;;;;;;;0.30;0.30;;;;;;;;;;5007791;28;20045;-74
2023/08/28 00:47:32;;;;;;;0.68;0.68;;;;;;;;;;5007850;28;20034;-74
2023/08/28 00:49:58;;;;;;;0.60;0.60;;;;;;;;;;5005767;28;20026;-76
2023/08/28 00:52:24;;;;;;;0.57;0.40;;;;;;;;;;5011234;28;20034;-74
2023/08/28 00:54:50;;;;;;;1.10;0.75;;;;;;;;;;5010812;28;20025;-74
2023/08/28 00:57:18;;;;;;;0.45;0.45;;;;;;;;;;5010637;28;20483;-74
2023/08/28 00:59:44;;;;;;;0.40;0.40;;;;;;;;;;5007866;28;20029;-74
2023/08/28 01:02:10;;;;;;;0.50;0.50;;;;;;;;;;5011556;28;20061;-76
2023/08/28 01:04:36;;;;;;;0.50;0.50;;;;;;;;;;5009787;28;20030;-74
2023/08/28 01:07:09;;;;;;;1.05;0.60;;;;;;;;;;5009486;28;20026;-74
2023/08/28 01:09:54;;;;;;;0.57;0.57;;;;;;;;;;5010887;28;20034;-74
2023/08/28 01:12:26;;;;;;;0.60;0.50;;;;;;;;;;5011956;28;20037;-74
2023/08/28 01:14:55;;;;;;;0.50;0.50;;;;;;;;;;5010134;28;20049;-77
2023/08/28 01:17:23;;;;;;;0.40;0.40;;;;;;;;;;5011421;28;20054;-75
2023/08/28 01:19:50;;;;;;;1.52;0.60;;;;;;;;;;5012435;28;20566;-74
2023/08/28 01:22:16;;;;;;;1.10;0.52;;;;;;;;;;5011372;28;20030;-75
2023/08/28 01:24:48;;;;;;;0.50;0.50;;;;;;;;;;4999341;28;20037;-75
2023/08/28 01:27:15;;;;;;;0.43;0.43;;;;;;;;;;5011223;28;20037;-75
2023/08/28 01:29:41;;;;;;;0.52;0.52;;;;;;;;;;5010575;28;20029;-75
2023/08/28 01:32:07;;;;;;;2.50;0.70;;;;;;;;;;5011157;28;20034;-75
2023/08/28 01:34:33;;;;;;;0.88;0.82;;;;;;;;;;5011902;28;20018;-75
2023/08/28 01:37:03;;;;;;;0.47;0.47;;;;;;;;;;5011238;28;20032;-75
2023/08/28 01:39:34;;;;;;;1.75;0.47;;;;;;;;;;5011235;28;20120;-75
2023/08/28 01:42:00;;;;;;;0.50;0.50;;;;;;;;;;5004675;28;20068;-75
2023/08/28 01:44:29;;;;;;;1.10;0.60;;;;;;;;;;5010377;28;20042;-75
2023/08/28 01:46:55;;;;;;;0.38;0.38;;;;;;;;;;5010050;28;20441;-75
2023/08/28 01:49:21;;;;;;;0.50;0.50;;;;;;;;;;5010957;28;20101;-75
2023/08/28 01:51:47;;;;;;;0.50;0.50;;;;;;;;;;5010074;28;20826;-75
2023/08/28 01:54:13;;;;;;;0.57;0.57;;;;;;;;;;5006873;28;20165;-75
2023/08/28 01:56:39;;;;;;;0.60;0.60;;;;;;;;;;5010121;28;20643;-75
2023/08/28 01:59:05;;;;;;;0.70;0.65;;;;;;;;;;5010166;28;20371;-75
2023/08/28 02:01:31;;;;;;;0.77;0.70;;;;;;;;;;5010802;28;20054;-75
2023/08/28 02:03:57;;;;;;;1.00;0.60;;;;;;;;;;5009669;28;20115;-75
2023/08/28 02:06:23;;;;;;;0.50;0.50;;;;;;;;;;5011072;28;20022;-75
2023/08/28 02:08:49;;;;;;;0.50;0.50;;;;;;;;;;5011708;28;20033;-75
2023/08/28 02:11:15;;;;;;;0.60;0.55;;;;;;;;;;5010610;28;20419;-75
2023/08/28 02:13:41;;;;;;;6.82;1.58;;;;;;;;;;5009687;28;20033;-75
2023/08/28 02:16:07;;;;;;;0.88;0.60;;;;;;;;;;4997388;28;20080;-75
2023/08/28 02:18:33;;;;;;;1.00;0.60;;;;;;;;;;5008927;28;20045;-75
2023/08/28 02:20:59;;;;;;;0.70;0.70;;;;;;;;;;5010682;28;20076;-76
2023/08/28 02:23:28;;;;;;;0.82;0.47;;;;;;;;;;5010252;28;20026;-75
2023/08/28 02:25:54;;;;;;;0.60;0.60;;;;;;;;;;5010332;28;20041;-75
2023/08/28 02:28:21;;;;;;;0.75;0.75;;;;;;;;;;5008058;28;20034;-75
2023/08/28 02:30:47;;;;;;;0.52;0.50;;;;;;;;;;5004332;28;20104;-75
2023/08/28 02:33:14;;;;;;;1.25;0.70;;;;;;;;;;5010109;28;20410;-75
2023/08/28 02:35:40;;;;;;;0.70;0.70;;;;;;;;;;5010182;28;20176;-75
2023/08/28 02:38:08;;;;;;;0.70;0.57;;;;;;;;;;5009406;28;20074;-75
2023/08/28 02:40:35;;;;;;;0.75;0.55;;;;;;;;;;5010086;28;20542;-75
2023/08/28 02:43:05;;;;;;;0.57;0.57;;;;;;;;;;5008545;28;20038;-75
2023/08/28 02:45:31;;;;;;;0.50;0.50;;;;;;;;;;5010309;28;20513;-75
2023/08/28 02:47:57;;;;;;;0.60;0.47;;;;;;;;;;5023936;28;20446;-75
2023/08/28 02:50:23;;;;;;;0.60;0.55;;;;;;;;;;5009469;28;20180;-75
2023/08/28 02:52:49;;;;;;;0.70;0.55;;;;;;;;;;5008345;28;20033;-75
2023/08/28 02:55:15;;;;;;;0.30;0.30;;;;;;;;;;5009646;28;20037;-76
2023/08/28 02:57:41;;;;;;;0.50;0.47;;;;;;;;;;5010079;28;20065;-75
2023/08/28 03:00:07;;;;;;;0.75;0.75;;;;;;;;;;5008400;28;20054;-75
2023/08/28 03:02:34;;;;;;;0.50;0.50;;;;;;;;;;5008859;28;20025;-75
2023/08/28 03:04:59;;;;;;;0.55;0.55;;;;;;;;;;5008171;28;20467;-75
2023/08/28 03:07:25;;;;;;;0.63;0.60;;;;;;;;;;5009523;28;20434;-76
2023/08/28 03:09:51;;;;;;;0.75;0.55;;;;;;;;;;5009386;28;20030;-76
2023/08/28 03:12:17;;;;;;;0.47;0.47;;;;;;;;;;5009411;28;20029;-75
2023/08/28 03:14:43;;;;;;;0.57;0.57;;;;;;;;;;5006342;28;20037;-75
2023/08/28 03:17:09;;;;;;;1.25;0.60;;;;;;;;;;5009657;28;20029;-76
2023/08/28 03:19:35;;;;;;;0.60;0.60;;;;;;;;;;5008987;28;20023;-76
2023/08/28 03:22:01;;;;;;;1.10;0.60;;;;;;;;;;5008446;28;20036;-75
2023/08/28 03:24:27;;;;;;;0.40;0.40;;;;;;;;;;5008811;28;20037;-75
2023/08/28 03:26:53;;;;;;;1.08;0.45;;;;;;;;;;5009273;28;20520;-75
2023/08/28 03:29:19;;;;;;;0.57;0.57;;;;;;;;;;5009679;28;20730;-75
2023/08/28 03:31:45;;;;;;;0.80;0.68;;;;;;;;;;5008043;28;20610;-75
2023/08/28 03:34:11;;;;;;;0.65;0.43;;;;;;;;;;5008542;28;20046;-75
2023/08/28 03:36:37;;;;;;;0.45;0.45;;;;;;;;;;4998918;28;20050;-75
2023/08/28 03:39:03;;;;;;;0.80;0.77;;;;;;;;;;5008469;28;20379;-76
2023/08/28 03:41:29;;;;;;;0.60;0.50;;;;;;;;;;5009003;28;20060;-76
2023/08/28 03:43:55;;;;;;;0.98;0.70;;;;;;;;;;5008161;28;20033;-75
2023/08/28 03:46:21;;;;;;;1.10;0.65;;;;;;;;;;5009530;28;20018;-75
2023/08/28 03:48:47;;;;;;;0.75;0.60;;;;;;;;;;5007862;28;20051;-76
2023/08/28 03:51:13;;;;;;;1.25;0.68;;;;;;;;;;5009294;28;20018;-76
2023/08/28 03:53:39;;;;;;;0.57;0.57;;;;;;;;;;5008399;28;20029;-76
2023/08/28 03:56:05;;;;;;;0.90;0.70;;;;;;;;;;5007915;28;20026;-75
2023/08/28 03:58:31;;;;;;;0.30;0.30;;;;;;;;;;5009054;28;20034;-74
2023/08/28 04:00:57;;;;;;;0.63;0.63;;;;;;;;;;5009887;28;20050;-75
2023/08/28 04:03:23;;;;;;;1.55;0.70;;;;;;;;;;5007528;28;20030;-76
2023/08/28 04:05:49;;;;;;;1.50;0.45;;;;;;;;;;5007901;28;20037;-75
2023/08/28 04:08:15;;;;;;;2.05;0.70;;;;;;;;;;5008828;28;20037;-76
2023/08/28 04:10:42;;;;;;;0.80;0.60;;;;;;;;;;5008246;28;20096;-76
2023/08/28 04:13:08;;;;;;;1.23;0.63;;;;;;;;;;5007044;28;20035;-75
2023/08/28 04:15:34;;;;;;;0.90;0.52;;;;;;;;;;5008436;28;20030;-75
2023/08/28 04:18:00;;;;;;;1.13;0.50;;;;;;;;;;5008539;28;20069;-75
2023/08/28 04:20:26;;;;;;;1.20;0.55;;;;;;;;;;5007906;28;20426;-75
2023/08/28 04:22:52;;;;;;;1.30;0.77;;;;;;;;;;5005329;28;20121;-76
2023/08/28 04:25:18;;;;;;;0.60;0.60;;;;;;;;;;5007157;28;20030;-75
2023/08/28 04:27:44;;;;;;;0.63;0.63;;;;;;;;;;5010936;28;20029;-76
2023/08/28 04:30:10;;;;;;;0.82;0.77;;;;;;;;;;5027739;28;20033;-75
2023/08/28 04:32:37;;;;;;;1.13;0.70;;;;;;;;;;5011965;28;20030;-75
2023/08/28 04:35:03;;;;;;;3.92;0.70;;;;;;;;;;5008435;28;20040;-75
2023/08/28 04:37:29;;;;;;;0.98;0.70;;;;;;;;;;5012936;28;20513;-76
2023/08/28 04:39:55;;;;;;;0.63;0.60;;;;;;;;;;5019834;28;20034;-76
2023/08/28 04:42:21;;;;;;;0.55;0.52;;;;;;;;;;5013093;28;20042;-75
2023/08/28 04:44:47;;;;;;;0.57;0.52;;;;;;;;;;5012570;28;20049;-76
2023/08/28 04:47:13;;;;;;;0.80;0.80;;;;;;;;;;5024166;28;20083;-75
2023/08/28 04:49:40;;;;;;;0.47;0.47;;;;;;;;;;5012517;28;20105;-75
2023/08/28 04:52:06;;;;;;;3.20;0.65;;;;;;;;;;5011518;28;20025;-75
2023/08/28 04:54:33;;;;;;;0.68;0.60;;;;;;;;;;5010760;28;20025;-75
2023/08/28 04:56:59;;;;;;;0.73;0.57;;;;;;;;;;5010037;28;20041;-75
2023/08/28 04:59:25;;;;;;;1.05;0.88;;;;;;;;;;5010607;28;20080;-75
2023/08/28 05:01:51;;;;;;;0.40;0.40;;;;;;;;;;5007917;28;20050;-75
2023/08/28 05:04:17;;;;;;;0.50;0.50;;;;;;;;;;5006774;28;20034;-75
2023/08/28 05:06:43;;;;;;;0.55;0.55;;;;;;;;;;5012555;28;20507;-76
2023/08/28 05:09:10;;;;;;;0.80;0.70;;;;;;;;;;5012041;28;20863;-76
2023/08/28 05:11:39;;;;;;;1.20;0.90;;;;;;;;;;5004342;28;20101;-76
2023/08/28 05:14:05;;;;;;;0.63;0.60;;;;;;;;;;5011295;28;20060;-88
2023/08/28 05:16:32;;;;;;;2.58;0.60;;;;;;;;;;5012165;28;20117;-87
2023/08/28 05:18:57;;;;;;;0.50;0.50;;;;;;;;;;5005704;28;20092;-88
2023/08/28 05:21:23;;;;;;;2.03;0.75;;;;;;;;;;5009833;28;20045;-88
2023/08/28 05:23:56;;;;;;;0.60;0.60;;;;;;;;;;5007625;28;20047;-89
2023/08/28 05:26:21;;;;;;;0.57;0.57;;;;;;;;;;5009365;28;20034;-91
2023/08/28 05:28:47;;;;;;;2.05;0.88;;;;;;;;;;5012799;28;20080;-89
2023/08/28 05:31:13;;;;;;;0.80;0.60;;;;;;;;;;5013637;28;20117;-87
2023/08/28 05:33:39;;;;;;;0.57;0.57;;;;;;;;;;5006002;28;20041;-83
2023/08/28 05:36:05;;;;;;;0.55;0.55;;;;;;;;;;5009929;28;20042;-82
2023/08/28 05:38:31;;;;;;;1.50;0.95;;;;;;;;;;5008005;28;20092;-82
2023/08/28 05:40:57;;;;;;;0.73;0.68;;;;;;;;;;5010183;28;20096;-81
2023/08/28 05:43:23;;;;;;;1.13;0.75;;;;;;;;;;5010966;28;20049;-91
2023/08/28 05:45:50;;;;;;;3.10;1.05;;;;;;;;;;5007904;28;20049;-92
2023/08/28 05:48:16;;;;;;;0.98;0.88;;;;;;;;;;5012180;28;20030;-92
2023/08/28 05:50:45;;;;;;;1.42;0.80;;;;;;;;;;5010937;28;20495;-87
2023/08/28 05:53:11;;;;;;;1.05;0.70;;;;;;;;;;5008977;28;20044;-87
2023/08/28 05:55:37;;;;;;;0.70;0.70;;;;;;;;;;5010327;28;20104;-87
2023/08/28 05:58:03;;;;;;;0.70;0.65;;;;;;;;;;5013991;28;20029;-90
2023/08/28 06:00:29;;;;;;;0.95;0.65;;;;;;;;;;5006750;28;20081;-88
2023/08/28 06:02:55;;;;;;;0.47;0.47;;;;;;;;;;5006220;28;20018;-90
2023/08/28 06:05:21;;;;;;;0.77;0.70;;;;;;;;;;5012529;28;20033;-90
2023/08/28 06:07:47;;;;;;;1.77;0.88;;;;;;;;;;5005870;28;20057;-89
2023/08/28 06:10:17;;;;;;;0.50;0.50;;;;;;;;;;5009593;28;20083;-92
2023/08/28 06:12:47;;;;;;;1.52;0.95;;;;;;;;;;5009174;28;20037;-89
2023/08/28 06:15:19;;;;;;;0.85;0.70;;;;;;;;;;4998899;28;20463;-83
2023/08/28 06:17:46;;;;;;;1.23;0.85;;;;;;;;;;4998809;28;21607;-83
2023/08/28 06:20:12;;;;;;;1.00;0.90;;;;;;;;;;5004999;28;20022;-83
2023/08/28 06:22:38;;;;;;;0.80;0.80;;;;;;;;;;5005402;28;20196;-83
2023/08/28 06:25:05;;;;;;;1.17;0.90;;;;;;;;;;5005284;28;20030;-83
2023/08/28 06:27:31;;;;;;;0.55;0.55;;;;;;;;;;5000059;28;20061;-83
2023/08/28 06:29:57;;;;;;;1.20;1.08;;;;;;;;;;5001903;28;20033;-84
2023/08/28 06:32:23;;;;;;;0.52;0.52;;;;;;;;;;5004825;28;20438;-82
2023/08/28 06:34:49;;;;;;;1.15;0.80;;;;;;;;;;5002978;28;20029;-82
2023/08/28 06:37:15;;;;;;;0.73;0.68;;;;;;;;;;4999850;28;20501;-82
2023/08/28 06:39:41;;;;;;;0.70;0.70;;;;;;;;;;5002790;28;20069;-81
2023/08/28 06:42:07;;;;;;;5.43;1.00;;;;;;;;;;5002401;28;20037;-83
2023/08/28 06:44:33;;;;;;;0.50;0.50;;;;;;;;;;5006966;28;20038;-83
2023/08/28 06:46:58;;;;;;;2.58;0.85;;;;;;;;;;5003316;28;20360;-83
2023/08/28 06:49:25;;;;;;;1.45;0.90;;;;;;;;;;5003684;28;20041;-85
2023/08/28 06:51:51;;;;;;;1.52;0.63;;;;;;;;;;5003708;28;20023;-83
2023/08/28 06:54:17;;;;;;;0.88;0.82;;;;;;;;;;5004701;28;20056;-82
2023/08/28 06:56:43;;;;;;;1.10;1.02;;;;;;;;;;4997850;28;20112;-84
2023/08/28 06:59:09;;;;;;;1.23;0.73;;;;;;;;;;4997402;28;20490;-82
2023/08/28 07:01:35;;;;;;;0.50;0.50;;;;;;;;;;4997176;28;20050;-82
2023/08/28 07:04:04;;;;;;;2.67;0.60;;;;;;;;;;5001157;28;20022;-83
2023/08/28 07:06:30;;;;;;;3.60;0.93;;;;;;;;;;5000656;28;20053;-83
2023/08/28 07:08:59;;;;;;;0.80;0.65;;;;;;;;;;5005417;28;20022;-82
2023/08/28 07:11:25;;;;;;;2.58;0.50;;;;;;;;;;5003264;28;20048;-83
2023/08/28 07:13:51;;;;;;;0.93;0.85;;;;;;;;;;5005506;28;20022;-83
2023/08/28 07:16:17;;;;;;;1.80;0.80;;;;;;;;;;5003401;28;20083;-85
2023/08/28 07:18:43;;;;;;;0.65;0.50;;;;;;;;;;5000750;28;20129;-82
2023/08/28 07:21:09;;;;;;;0.50;0.40;;;;;;;;;;5004123;28;20406;-82
2023/08/28 07:23:36;;;;;;;0.85;0.68;;;;;;;;;;4999324;28;20050;-83
2023/08/28 07:26:03;;;;;;;0.88;0.45;;;;;;;;;;5002702;28;20026;-82
2023/08/28 07:28:29;;;;;;;0.45;0.45;;;;;;;;;;5001377;28;20079;-83
2023/08/28 07:30:59;;;;;;;0.75;0.70;;;;;;;;;;5007081;28;20021;-82
2023/08/28 07:33:25;;;;;;;0.50;0.50;;;;;;;;;;5006627;28;20397;-81
2023/08/28 07:35:51;;;;;;;1.38;0.95;;;;;;;;;;5005014;28;20471;-82
2023/08/28 07:38:18;;;;;;;0.60;0.60;;;;;;;;;;5007198;28;20124;-82
2023/08/28 07:40:46;;;;;;;1.13;0.47;;;;;;;;;;5006112;28;20391;-82
2023/08/28 07:43:12;;;;;;;2.63;0.70;;;;;;;;;;5003209;28;20107;-82
2023/08/28 07:45:38;;;;;;;1.40;0.73;;;;;;;;;;5005864;28;20022;-85
2023/08/28 07:48:05;;;;;;;0.77;0.60;;;;;;;;;;5004032;28;20026;-83
2023/08/28 07:50:31;;;;;;;1.02;0.68;;;;;;;;;;5002243;28;20117;-83
2023/08/28 07:52:57;;;;;;;0.80;0.70;;;;;;;;;;5002282;28;20113;-81
2023/08/28 07:55:23;;;;;;;0.50;0.50;;;;;;;;;;4990017;28;20512;-84
2023/08/28 07:57:49;;;;;;;0.55;0.55;;;;;;;;;;5004820;28;20022;-84
2023/08/28 08:00:16;;;;;;;0.68;0.57;;;;;;;;;;5006569;28;20046;-85
2023/08/28 08:02:42;;;;;;;2.38;0.68;;;;;;;;;;5010417;28;20044;-82
2023/08/28 08:05:11;;;;;;;0.80;0.80;;;;;;;;;;5007432;28;20387;-83
2023/08/28 08:07:40;;;;;;;0.43;0.43;;;;;;;;;;4995286;28;20030;-84
2023/08/28 08:10:12;;;;;;;0.57;0.57;;;;;;;;;;4988336;28;20037;-83
2023/08/28 08:12:39;;;;;;;1.75;0.77;;;;;;;;;;5002030;28;20060;-83
2023/08/28 08:15:08;;;;;;;0.63;0.57;;;;;;;;;;5000638;28;20112;-82
2023/08/28 08:17:41;;;;;;;0.70;0.70;;;;;;;;;;4996712;28;20080;-83
2023/08/28 08:20:10;;;;;;;0.60;0.60;;;;;;;;;;5000238;28;20048;-84
2023/08/28 08:22:36;;;;;;;0.50;0.50;;;;;;;;;;5002011;28;20534;-82
2023/08/28 08:25:02;;;;;;;0.55;0.55;;;;;;;;;;5001501;28;20430;-82
2023/08/28 08:27:28;;;;;;;0.40;0.40;;;;;;;;;;5006676;28;20052;-83
2023/08/28 08:29:54;;;;;;;0.40;0.40;;;;;;;;;;5004838;28;20437;-83
2023/08/28 08:32:20;;;;;;;0.57;0.40;;;;;;;;;;5000468;28;20061;-83
2023/08/28 08:34:46;;;;;;;1.30;0.77;;;;;;;;;;5002899;28;20030;-82
2023/08/28 08:37:12;;;;;;;0.50;0.50;;;;;;;;;;4999701;28;20034;-83
2023/08/28 08:39:38;;;;;;;0.80;0.60;;;;;;;;;;4995295;28;20041;-80
2023/08/28 08:42:04;;;;;;;0.60;0.50;;;;;;;;;;5004645;28;20510;-83
2023/08/28 08:44:30;;;;;;;0.55;0.55;;;;;;;;;;5003097;28;20125;-83
2023/08/28 08:46:57;;;;;;;0.55;0.55;;;;;;;;;;5001231;28;20033;-83
2023/08/28 08:49:26;;;;;;;2.10;0.70;;;;;;;;;;4999069;28;20495;-83
2023/08/28 08:51:55;;;;;;;0.52;0.52;;;;;;;;;;5005235;28;20034;-83
2023/08/28 08:54:25;;;;;;;0.70;0.70;;;;;;;;;;5003236;28;20105;-82
2023/08/28 08:56:54;;;;;;;3.45;0.47;;;;;;;;;;5002942;28;20037;-82
2023/08/28 08:59:24;;;;;;;0.63;0.63;;;;;;;;;;5001964;28;20030;-84
2023/08/28 09:01:49;;;;;;;0.50;0.50;;;;;;;;;;5002404;28;20081;-82
2023/08/28 09:04:16;;;;;;;1.10;0.70;;;;;;;;;;5002937;28;20085;-83
2023/08/28 09:06:42;;;;;;;0.77;0.50;;;;;;;;;;4999899;28;20842;-82
2023/08/28 09:09:11;;;;;;;0.55;0.55;;;;;;;;;;5018541;28;20683;-82
2023/08/28 09:11:39;;;;;;;0.73;0.73;;;;;;;;;;5005631;28;20030;-82
2023/08/28 09:14:05;;;;;;;0.40;0.40;;;;;;;;;;5006686;28;20100;-81
2023/08/28 09:16:33;;;;;;;0.43;0.43;;;;;;;;;;5008343;28;20046;-83
2023/08/28 09:18:59;;;;;;;0.75;0.60;;;;;;;;;;5008141;28;20030;-83
2023/08/28 09:21:25;;;;;;;0.50;0.50;;;;;;;;;;5009136;28;20037;-81
2023/08/28 09:23:51;;;;;;;0.40;0.40;;;;;;;;;;5009166;28;20021;-82
2023/08/28 09:26:19;;;;;;;0.70;0.60;;;;;;;;;;5005472;28;20037;-81
2023/08/28 09:29:06;;;;;;;0.70;0.70;;;;;;;;;;5004410;28;20032;-79
2023/08/28 09:31:32;;;;;;;0.65;0.43;;;;;;;;;;5009014;28;20050;-87
2023/08/28 09:33:58;;;;;;;10.93;0.82;;;;;;;;;;5009128;28;20502;-80
2023/08/28 09:36:25;;;;;;;2.78;0.70;;;;;;;;;;5008092;28;20425;-76
2023/08/28 09:38:51;;;;;;;0.40;0.40;;;;;;;;;;5000983;28;20494;-74
2023/08/28 09:41:17;;;;;;;2.53;0.70;;;;;;;;;;5005906;28;20689;-77
2023/08/28 09:43:43;;;;;;;0.60;0.60;;;;;;;;;;4999477;28;20107;-80
2023/08/28 09:46:09;;;;;;;0.75;0.60;;;;;;;;;;5007914;28;20042;-79
2023/08/28 09:48:36;;;;;;;2.80;0.50;;;;;;;;;;5006409;28;20057;-85
2023/08/28 09:51:06;;;;;;;1.23;1.08;;;;;;;;;;5006951;28;20034;-78
2023/08/28 09:53:32;;;;;;;0.60;0.60;;;;;;;;;;5006711;28;20056;-87
2023/08/28 09:55:58;;;;;;;0.70;0.60;;;;;;;;;;5008461;28;20265;-86
2023/08/28 09:58:25;;;;;;;0.40;0.40;;;;;;;;;;5008161;28;20030;-86
2023/08/28 10:00:52;;;;;;;0.40;0.40;;;;;;;;;;5001803;28;20050;-91
2023/08/28 10:03:19;;;;;;;0.60;0.60;;;;;;;;;;5008868;28;20152;-90
2023/08/28 10:05:46;;;;;;;0.40;0.40;;;;;;;;;;5002242;28;20033;-90
2023/08/28 10:08:15;;;;;;;0.90;0.65;;;;;;;;;;5010452;28;20038;-91
2023/08/28 10:10:45;;;;;;;1.00;0.60;;;;;;;;;;5008694;28;20029;-90
2023/08/28 10:13:18;;;;;;;0.50;0.40;;;;;;;;;;5010246;28;20026;-91
2023/08/28 10:16:02;;;;;;;0.50;0.50;;;;;;;;;;5007949;28;20103;-90
2023/08/28 10:18:43;;;;;;;0.45;0.43;;;;;;;;;;5003598;28;20589;-91
2023/08/28 10:21:09;;;;;;;0.97;0.60;;;;;;;;;;5009205;28;20033;-90
2023/08/28 10:23:35;;;;;;;0.50;0.50;;;;;;;;;;5027647;28;20022;-89
2023/08/28 10:26:04;;;;;;;0.30;0.30;;;;;;;;;;5013400;28;20497;-90
2023/08/28 10:28:31;;;;;;;0.45;0.45;;;;;;;;;;5015272;28;20041;-91
2023/08/28 10:30:57;;;;;;;0.40;0.40;;;;;;;;;;5016138;28;20056;-88
2023/08/28 10:33:23;;;;;;;2.63;0.50;;;;;;;;;;5011521;28;20038;-89
2023/08/28 10:35:53;;;;;;;0.40;0.40;;;;;;;;;;5012285;28;20041;-91
2023/08/28 10:38:20;;;;;;;0.52;0.50;;;;;;;;;;5034162;28;20497;-90
2023/08/28 10:40:48;;;;;;;1.25;0.70;;;;;;;;;;5016966;28;20064;-91
2023/08/28 10:43:14;;;;;;;0.50;0.50;;;;;;;;;;5016734;28;20032;-91
2023/08/28 10:45:41;;;;;;;0.40;0.40;;;;;;;;;;5012754;28;20026;-91
2023/08/28 10:48:07;;;;;;;0.75;0.55;;;;;;;;;;5018088;28;20037;-89
2023/08/28 10:50:39;;;;;;;0.40;0.30;;;;;;;;;;5011322;28;20036;-91
2023/08/28 10:53:06;;;;;;;0.45;0.45;;;;;;;;;;5015834;28;20082;-92
2023/08/28 10:55:34;;;;;;;0.32;0.32;;;;;;;;;;5008643;28;20054;-92
2023/08/28 10:58:03;;;;;;;0.57;0.50;;;;;;;;;;5011319;28;20116;-92
2023/08/28 11:00:29;;;;;;;0.20;0.20;;;;;;;;;;5012180;28;20050;-90
2023/08/28 11:03:14;;;;;;;0.50;0.50;;;;;;;;;;5020783;28;20030;-91
2023/08/28 11:05:40;;;;;;;0.32;0.32;;;;;;;;;;5010889;28;20076;-90
2023/08/28 11:08:09;;;;;;;0.40;0.40;;;;;;;;;;4997799;28;20108;-90
2023/08/28 11:10:38;;;;;;;0.57;0.50;;;;;;;;;;5006562;28;20037;-90
2023/08/28 11:13:05;;;;;;;1.23;0.47;;;;;;;;;;5001463;28;20101;-92
2023/08/28 11:15:35;;;;;;;0.30;0.30;;;;;;;;;;5011384;28;20034;-90
2023/08/28 11:18:13;;;;;;;1.52;0.60;;;;;;;;;;5011102;28;20022;-89
2023/08/28 11:20:39;;;;;;;0.70;0.50;;;;;;;;;;5008485;28;20399;-88
2023/08/28 11:23:06;;;;;;;0.25;0.25;;;;;;;;;;5018804;28;20065;-91
2023/08/28 11:25:36;;;;;;;0.70;0.47;;;;;;;;;;5005766;28;20042;-89
2023/08/28 11:28:02;;;;;;;0.30;0.30;;;;;;;;;;5008609;28;20053;-89
2023/08/28 11:30:29;;;;;;;0.57;0.57;;;;;;;;;;5011061;28;20730;-89
2023/08/28 11:32:55;;;;;;;0.55;0.55;;;;;;;;;;5014711;28;20028;-89
2023/08/28 11:35:22;;;;;;;0.47;0.47;;;;;;;;;;5009167;28;20026;-89
2023/08/28 11:37:49;;;;;;;0.32;0.32;;;;;;;;;;5022207;28;20105;-89
2023/08/28 11:40:19;;;;;;;0.47;0.47;;;;;;;;;;5010946;28;20113;-89
2023/08/28 11:42:49;;;;;;;0.50;0.50;;;;;;;;;;5008943;28;20018;-89
2023/08/28 11:45:24;;;;;;;0.40;0.40;;;;;;;;;;5007412;28;20036;-90
2023/08/28 11:47:50;;;;;;;0.35;0.32;;;;;;;;;;5022173;28;20109;-89
2023/08/28 11:50:19;;;;;;;0.50;0.50;;;;;;;;;;5004958;28;20029;-91
2023/08/28 11:52:49;;;;;;;0.38;0.38;;;;;;;;;;5010643;28;20597;-89
2023/08/28 11:55:15;;;;;;;0.75;0.35;;;;;;;;;;5010182;28;20105;-82
2023/08/28 11:57:43;;;;;;;0.40;0.40;;;;;;;;;;5008421;28;20029;-82
2023/08/28 12:00:14;;;;;;;0.63;0.40;;;;;;;;;;5006838;28;20605;-82
2023/08/28 12:02:40;;;;;;;0.50;0.50;;;;;;;;;;4998014;28;20498;-84
2023/08/28 12:05:07;;;;;;;0.57;0.57;;;;;;;;;;5005917;28;20064;-83
2023/08/28 12:07:33;;;;;;;1.48;0.45;;;;;;;;;;5007435;28;20101;-82
2023/08/28 12:09:59;;;;;;;3.67;0.30;;;;;;;;;;5004572;28;20459;-83
2023/08/28 12:12:26;;;;;;;2.25;1.08;;;;;;;;;;5008580;28;20044;-82
2023/08/28 12:14:53;;;;;;;0.47;0.43;;;;;;;;;;5008918;28;20029;-83
2023/08/28 12:17:22;;;;;;;0.40;0.40;;;;;;;;;;5006149;28;20551;-82
2023/08/28 12:19:49;;;;;;;0.43;0.43;;;;;;;;;;5007941;28;20091;-81
2023/08/28 12:22:15;;;;;;;0.40;0.40;;;;;;;;;;5006170;28;20129;-83
2023/08/28 12:24:46;;;;;;;0.70;0.65;;;;;;;;;;5003442;28;20045;-82
2023/08/28 12:27:12;;;;;;;0.50;0.50;;;;;;;;;;5001374;28;20029;-82
2023/08/28 12:29:41;;;;;;;0.50;0.50;;;;;;;;;;5000669;28;20026;-83
2023/08/28 12:32:08;;;;;;;0.70;0.50;;;;;;;;;;5008063;28;20028;-81
2023/08/28 12:34:34;;;;;;;0.40;0.40;;;;;;;;;;5000482;28;20045;-84
2023/08/28 12:37:13;;;;;;;0.63;0.40;;;;;;;;;;5006863;28;20033;-82
2023/08/28 12:39:46;;;;;;;1.60;0.43;;;;;;;;;;5008951;28;20022;-83
2023/08/28 12:42:15;;;;;;;1.60;0.50;;;;;;;;;;5008522;28;20375;-82
2023/08/28 12:44:45;;;;;;;0.80;0.80;;;;;;;;;;5008602;28;20152;-83
2023/08/28 12:47:15;;;;;;;3.20;0.52;;;;;;;;;;5009257;28;20490;-82
2023/08/28 12:49:42;;;;;;;0.43;0.43;;;;;;;;;;5012909;28;20045;-82
2023/08/28 12:52:11;;;;;;;0.40;0.40;;;;;;;;;;5012109;28;20057;-82
2023/08/28 12:54:41;;;;;;;0.85;0.50;;;;;;;;;;5010322;28;20026;-76
2023/08/28 12:57:08;;;;;;;0.40;0.40;;;;;;;;;;5008436;28;20060;-77
2023/08/28 12:59:34;;;;;;;0.50;0.28;;;;;;;;;;5009160;28;20060;-76
2023/08/28 13:02:01;;;;;;;0.50;0.50;;;;;;;;;;5008207;28;20715;-79
2023/08/28 13:04:27;;;;;;;0.30;0.30;;;;;;;;;;4997781;28;20494;-80
2023/08/28 13:06:56;;;;;;;0.30;0.30;;;;;;;;;;4997817;28;20036;-79
2023/08/28 13:09:23;;;;;;;0.50;0.50;;;;;;;;;;5007391;28;20109;-79
2023/08/28 13:11:52;;;;;;;0.47;0.47;;;;;;;;;;5001676;28;20095;-79
2023/08/28 13:14:18;;;;;;;0.30;0.30;;;;;;;;;;5002777;28;20034;-80
2023/08/28 13:16:44;;;;;;;0.32;0.32;;;;;;;;;;5002431;28;20061;-79
2023/08/28 13:19:10;;;;;;;0.40;0.40;;;;;;;;;;5005916;28;20056;-79
2023/08/28 13:21:37;;;;;;;0.52;0.52;;;;;;;;;;5008084;28;20647;-79
2023/08/28 13:24:03;;;;;;;0.57;0.40;;;;;;;;;;5006519;28;20029;-79
2023/08/28 13:26:29;;;;;;;0.98;0.60;;;;;;;;;;5009321;28;20030;-79
2023/08/28 13:28:55;;;;;;;0.40;0.40;;;;;;;;;;5007341;28;20501;-80
2023/08/28 13:31:21;;;;;;;0.30;0.30;;;;;;;;;;5003488;28;20399;-80
2023/08/28 13:33:48;;;;;;;0.40;0.40;;;;;;;;;;5005754;28;20042;-79
2023/08/28 13:36:15;;;;;;;0.40;0.40;;;;;;;;;;4998509;28;20367;-79
2023/08/28 13:38:41;;;;;;;0.43;0.40;;;;;;;;;;5003735;28;20487;-79
2023/08/28 13:41:07;;;;;;;0.38;0.38;;;;;;;;;;5006424;28;20029;-77
2023/08/28 13:43:33;;;;;;;0.40;0.40;;;;;;;;;;5010518;28;20036;-81
2023/08/28 13:45:59;;;;;;;0.85;0.57;;;;;;;;;;5012129;28;20490;-80
2023/08/28 13:48:25;;;;;;;0.45;0.30;;;;;;;;;;5006236;28;20042;-81
2023/08/28 13:50:51;;;;;;;0.43;0.43;;;;;;;;;;4990877;28;20528;-81
2023/08/28 13:53:18;;;;;;;0.40;0.40;;;;;;;;;;5001308;28;20434;-79
2023/08/28 13:55:44;;;;;;;0.88;0.63;;;;;;;;;;5003280;28;20038;-77
2023/08/28 13:58:14;;;;;;;1.23;0.50;;;;;;;;;;5006680;28;20037;-74
2023/08/28 14:00:40;;;;;;;0.68;0.28;;;;;;;;;;5007119;28;20470;-74
2023/08/28 14:03:06;;;;;;;1.05;0.50;;;;;;;;;;5001959;28;20387;-75
2023/08/28 14:05:35;;;;;;;0.47;0.47;;;;;;;;;;5003887;28;20033;-75
2023/08/28 14:08:03;;;;;;;0.50;0.50;;;;;;;;;;5000897;28;20037;-76
2023/08/28 14:10:29;;;;;;;0.40;0.40;;;;;;;;;;5004253;28;20033;-78
2023/08/28 14:12:56;;;;;;;0.25;0.25;;;;;;;;;;5004170;28;20069;-78
2023/08/28 14:15:22;;;;;;;0.75;0.75;;;;;;;;;;5005538;28;20041;-78
2023/08/28 14:17:47;;;;;;;0.40;0.40;;;;;;;;;;4998612;28;20338;-78
2023/08/28 14:20:13;;;;;;;0.40;0.40;;;;;;;;;;5004437;28;20029;-78
2023/08/28 14:22:39;;;;;;;0.55;0.55;;;;;;;;;;5001043;28;20023;-78
2023/08/28 14:25:06;;;;;;;0.40;0.40;;;;;;;;;;5004463;28;20501;-79
2023/08/28 14:27:32;;;;;;;0.80;0.38;;;;;;;;;;5009113;28;20028;-77
2023/08/28 14:30:16;;;;;;;0.68;0.60;;;;;;;;;;5007859;28;20022;-82
2023/08/28 14:32:45;;;;;;;0.60;0.60;;;;;;;;;;4998827;28;20042;-83
2023/08/28 14:35:17;;;;;;;1.17;0.35;;;;;;;;;;4999179;28;20491;-82
2023/08/28 14:37:43;;;;;;;0.40;0.40;;;;;;;;;;5001034;28;20033;-82
2023/08/28 14:40:12;;;;;;;0.40;0.40;;;;;;;;;;5007178;28;20026;-83
2023/08/28 14:42:41;;;;;;;0.55;0.55;;;;;;;;;;5004964;28;20091;-84